עמוד ראשי
METAR-TAF:

METAR-TAF

שדות תעופה :

Sebring, פלורידה, ארצות הברית

קו רוחב: 27-27-23N, קו אורך: 081-20-33W, גובה: 19מטר

תצפית מזג אוויר נוכחית

הדו"ח נערך לפני 28דקות, בשעה 16:35 UTC
רוח 13קשר מכיוון מזרח עם משבים עד 16קשר
טמפרטורת 32 צלסיוס
לחות 56%
לחץ 1018 hPa
ראות: 16.1קילומטר
עננים בינוניים בגובה 4300רגל
עננים בינוניים בגובה 4900רגל
עננים בינוניים בגובה 6000רגל

METAR: KSEF 171635Z AUTO 08013G16KT 10SM BKN043 BKN049 BKN060 32/22 A3005 RMK AO2 T03230216

זמן: 13:03 (17:03 UTC)


TAF: חסר

תצפיות ותחזיות מזג אוויר לגבי יותר מ- 4,000 שדות תעופה ברחבי העולם. דוחות METAR ו- TAF.

התחנות הזמינות מסומנות בנקודות צהובות ואדומות על גבי המפה.

העבר את העכבר לנקודה הצבעונית על מנת לראות את שם התחנה.

לאחר מכן, לחץ כדי לראות את תוכן ואת תחזיות מזג האוויר.

כדי לשנות את המפה: לחץ על הכפתורים הירוקים עם הפלוס השחור כדי להתקרב; על הכפתור הירוק עם המקף כדי להתרחק; או בחיצים הירוקים למפות סמוכות.


METAR-TAF: